地図

経路データ

SID SEASON NUMBER BASIN SUBBASIN NAME ISO_TIME NATURE LAT LON WMO_WIND WMO_PRES WMO_AGENCY TRACK_TYPE DIST2LAND LANDFALL IFLAG USA_AGENCY USA_ATCF_ID USA_LAT USA_LON USA_RECORD USA_STATUS USA_WIND USA_PRES USA_SSHS USA_R34_NE USA_R34_SE USA_R34_SW USA_R34_NW USA_R50_NE USA_R50_SE USA_R50_SW USA_R50_NW USA_R64_NE USA_R64_SE USA_R64_SW USA_R64_NW USA_POCI USA_ROCI USA_RMW USA_EYE TOKYO_LAT TOKYO_LON TOKYO_GRADE TOKYO_WIND TOKYO_PRES TOKYO_R50_DIR TOKYO_R50_LONG TOKYO_R50_SHORT TOKYO_R30_DIR TOKYO_R30_LONG TOKYO_R30_SHORT TOKYO_LAND CMA_LAT CMA_LON CMA_CAT CMA_WIND CMA_PRES HKO_LAT HKO_LON HKO_CAT HKO_WIND HKO_PRES NEWDELHI_LAT NEWDELHI_LON NEWDELHI_GRADE NEWDELHI_WIND NEWDELHI_PRES NEWDELHI_CI NEWDELHI_DP NEWDELHI_POCI REUNION_LAT REUNION_LON REUNION_TYPE REUNION_WIND REUNION_PRES REUNION_TNUM REUNION_CI REUNION_RMW REUNION_R34_NE REUNION_R34_SE REUNION_R34_SW REUNION_R34_NW REUNION_R50_NE REUNION_R50_SE REUNION_R50_SW REUNION_R50_NW REUNION_R64_NE REUNION_R64_SE REUNION_R64_SW REUNION_R64_NW BOM_LAT BOM_LON BOM_TYPE BOM_WIND BOM_PRES BOM_TNUM BOM_CI BOM_RMW BOM_R34_NE BOM_R34_SE BOM_R34_SW BOM_R34_NW BOM_R50_NE BOM_R50_SE BOM_R50_SW BOM_R50_NW BOM_R64_NE BOM_R64_SE BOM_R64_SW BOM_R64_NW BOM_ROCI BOM_POCI BOM_EYE BOM_POS_METHOD BOM_PRES_METHOD NADI_LAT NADI_LON NADI_CAT NADI_WIND NADI_PRES WELLINGTON_LAT WELLINGTON_LON WELLINGTON_WIND WELLINGTON_PRES DS824_LAT DS824_LON DS824_STAGE DS824_WIND DS824_PRES TD9636_LAT TD9636_LON TD9636_STAGE TD9636_WIND TD9636_PRES TD9635_LAT TD9635_LON TD9635_WIND TD9635_PRES TD9635_ROCI NEUMANN_LAT NEUMANN_LON NEUMANN_CLASS NEUMANN_WIND NEUMANN_PRES MLC_LAT MLC_LON MLC_CLASS MLC_WIND MLC_PRES USA_GUST BOM_GUST BOM_GUST_PER REUNION_GUST REUNION_GUST_PER USA_SEAHGT USA_SEARAD_NE USA_SEARAD_SE USA_SEARAD_SW USA_SEARAD_NW STORM_SPEED STORM_DIR
2020223N10332 2020 49 NA NA JOSEPHINE 2020-08-09 18:00:00 NR 10.0000 -28.5000 PROVISIONAL 1304 1304 O_____________ nhc_working_bt AL112020 10.0000 -28.5000 DB 25 1009 -3 1013 180 50 15 269
2020223N10332 2020 49 NA NA JOSEPHINE 2020-08-09 21:00:00 NR 9.99285 -29.2575 PROVISIONAL 1385 1385 P_____________ AL112020 9.99285 -29.2575 DB 25 1009 -3 1013 180 50 15 270
2020223N10332 2020 49 NA NA JOSEPHINE 2020-08-10 00:00:00 NR 10.0000 -30.0000 PROVISIONAL 1456 1456 O_____________ nhc_working_bt AL112020 10.0000 -30.0000 DB 25 1009 -3 1013 180 50 14 272
2020223N10332 2020 49 NA NA JOSEPHINE 2020-08-10 03:00:00 NR 10.0349 -30.7150 PROVISIONAL 1527 1527 P_____________ AL112020 10.0349 -30.7150 DB 25 1009 -3 1013 165 50 14 274
2020223N10332 2020 49 NA NA JOSEPHINE 2020-08-10 06:00:00 NR 10.1000 -31.4000 PROVISIONAL 1595 1595 O_____________ nhc_working_bt AL112020 10.1000 -31.4000 DB 25 1009 -3 1013 150 50 35 13 276
2020223N10332 2020 49 NA NA JOSEPHINE 2020-08-10 09:00:00 NR 10.1698 -32.0502 PROVISIONAL 1663 1663 P_____________ AL112020 10.1698 -32.0502 DB 25 1009 -3 1013 150 50 13 279
2020223N10332 2020 49 NA NA JOSEPHINE 2020-08-10 12:00:00 NR 10.3000 -32.7000 PROVISIONAL 1675 1660 O_____________ nhc_working_bt AL112020 10.3000 -32.7000 DB 25 1009 -3 1013 150 50 35 14 285
2020223N10332 2020 49 NA NA JOSEPHINE 2020-08-10 15:00:00 NR 10.5274 -33.3999 PROVISIONAL 1660 1656 P_____________ AL112020 10.5274 -33.3999 DB 25 1009 -3 1012 150 45 15 290
2020223N10332 2020 49 NA NA JOSEPHINE 2020-08-10 18:00:00 DS 10.8000 -34.1000 PROVISIONAL 1659 1655 O_____________ nhc_working_bt AL112020 10.8000 -34.1000 LO 25 1009 -3 1012 150 40 14 292
2020223N10332 2020 49 NA NA JOSEPHINE 2020-08-10 21:00:00 DS 11.0723 -34.7500 PROVISIONAL 1667 1659 P_____________ AL112020 11.0723 -34.7500 LO 25 1009 -3 1012 150 45 14 291
2020223N10332 2020 49 NA NA JOSEPHINE 2020-08-11 00:00:00 DS 11.3000 -35.4000 PROVISIONAL 1663 1653 O_____________ nhc_working_bt AL112020 11.3000 -35.4000 LO 25 1009 -3 1012 150 50 14 285
2020223N10332 2020 49 NA NA JOSEPHINE 2020-08-11 03:00:00 DS 11.4299 -36.0926 PROVISIONAL 1653 1647 P_____________ AL112020 11.4299 -36.0926 LO 27 1008 -3 1012 150 45 14 278
2020223N10332 2020 49 NA NA JOSEPHINE 2020-08-11 06:00:00 DS 11.5000 -36.8000 PROVISIONAL 1647 1635 O_____________ nhc_working_bt AL112020 11.5000 -36.8000 LO 30 1008 -3 1012 150 40 40 14 275
2020223N10332 2020 49 NA NA JOSEPHINE 2020-08-11 09:00:00 DS 11.5573 -37.5001 PROVISIONAL 1644 1634 P_____________ AL112020 11.5573 -37.5001 LO 30 1008 -3 1012 150 40 14 274
2020223N10332 2020 49 NA NA JOSEPHINE 2020-08-11 12:00:00 DS 11.6000 -38.2000 PROVISIONAL 1634 1591 O_____________ nhc_working_bt AL112020 11.6000 -38.2000 LO 30 1008 -3 1012 150 40 40 14 274
2020223N10332 2020 49 NA NA JOSEPHINE 2020-08-11 15:00:00 DS 11.6423 -38.9001 PROVISIONAL 1591 1532 P_____________ AL112020 11.6423 -38.9001 LO 30 1008 -3 1012 150 50 14 273
2020223N10332 2020 49 NA NA JOSEPHINE 2020-08-11 18:00:00 TS 11.6667 -39.6000 PROVISIONAL 1532 1483 O_____________ nhc_working_bt AL112020 11.7000 -39.6000 TD 30 1008 -1 1012 150 60 40 14 276
2020223N10332 2020 49 NA NA JOSEPHINE 2020-08-11 21:00:00 TS 11.7801 -40.2724 PROVISIONAL 1474 1426 P_____________ AL112020 11.7999 -40.3074 TD 30 1008 -1 1012 150 50 13 280
2020223N10332 2020 49 NA NA JOSEPHINE 2020-08-12 00:00:00 TS 11.9000 -40.9400 PROVISIONAL 1426 1372 O_____________ nhc_working_bt AL112020 11.9000 -41.0000 TD 30 1008 -1 1012 150 40 40 13 279
2020223N10332 2020 49 NA NA JOSEPHINE 2020-08-12 03:00:00 TS 11.9907 -41.6193 PROVISIONAL 1372 1320 P_____________ AL112020 11.9573 -41.6576 TD 30 1008 -1 1012 150 40 13 277
2020223N10332 2020 49 NA NA JOSEPHINE 2020-08-12 06:00:00 TS 12.0667 -42.3000 PROVISIONAL 1320 1272 O_____________ nhc_working_bt AL112020 12.0000 -42.3000 TD 30 1008 -1 1012 150 40 40 13 277
2020223N10332 2020 49 NA NA JOSEPHINE 2020-08-12 09:00:00 TS 12.1498 -42.9501 PROVISIONAL 1264 1225 P_____________ AL112020 12.0498 -42.9500 TD 30 1007 -1 1012 150 40 13 277
2020223N10332 2020 49 NA NA JOSEPHINE 2020-08-12 12:00:00 TS 12.2333 -43.6000 PROVISIONAL 1225 1181 O_____________ nhc_working_bt AL112020 12.1000 -43.6000 TD 30 1007 -1 1012 150 40 40 13 278
2020223N10332 2020 49 NA NA JOSEPHINE 2020-08-12 15:00:00 TS 12.3367 -44.2957 PROVISIONAL 1181 1148 P_____________ AL112020 12.1499 -44.2575 TD 30 1007 -1 1012 150 50 13 277
2020223N10332 2020 49 NA NA JOSEPHINE 2020-08-12 18:00:00 TS 12.4000 -44.9667 PROVISIONAL 1141 1100 O_____________ nhc_working_bt AL112020 12.2000 -44.9000 TD 30 1007 -1 1012 150 60 40 12 270
2020223N10332 2020 49 NA NA JOSEPHINE 2020-08-12 21:00:00 TS 12.3322 -45.5462 PROVISIONAL 1100 1063 P_____________ AL112020 12.2273 -45.5077 TD 30 1007 -1 1012 150 60 11 265
2020223N10332 2020 49 NA NA JOSEPHINE 2020-08-13 00:00:00 TS 12.3000 -46.1000 PROVISIONAL 1063 1034 O_____________ nhc_working_bt AL112020 12.3000 -46.1000 TD 30 1007 -1 1012 150 60 40 11 276
2020223N10332 2020 49 NA NA JOSEPHINE 2020-08-13 03:00:00 TS 12.4449 -46.6875 PROVISIONAL 1034 1019 P_____________ AL112020 12.4698 -46.6925 TD 30 1007 -1 1011 150 60 12 289
2020223N10332 2020 49 NA NA JOSEPHINE 2020-08-13 06:00:00 TS 12.7000 -47.3000 PROVISIONAL 1022 1010 O_____________ nhc_working_bt AL112020 12.7000 -47.3000 TD 30 1007 -1 1010 150 60 40 13 294
2020223N10332 2020 49 NA NA JOSEPHINE 2020-08-13 09:00:00 TS 12.9915 -47.9351 PROVISIONAL 1014 1007 P_____________ AL112020 12.9348 -47.9352 TD 35 1006 0 35 35 1010 150 65 14 297
2020223N10332 2020 49 NA NA JOSEPHINE 2020-08-13 12:00:00 TS 13.3333 -48.6000 PROVISIONAL 1007 1007 O_____________ nhc_working_bt AL112020 13.2000 -48.6000 TS 40 1005 0 70 70 1010 150 70 50 12 120 15 299
2020223N10332 2020 49 NA NA JOSEPHINE 2020-08-13 15:00:00 TS 13.7224 -49.2923 PROVISIONAL 1016 1016 P_____________ AL112020 13.4924 -49.2926 TS 40 1005 0 70 70 1010 150 70 12 120 15 298
2020223N10332 2020 49 NA NA JOSEPHINE 2020-08-13 18:00:00 TS 14.0667 -50.0000 PROVISIONAL 1027 1005 O_____________ nhc_working_bt AL112020 13.8000 -50.0000 TS 40 1005 0 70 70 1010 150 70 50 12 120 70 15 291
2020223N10332 2020 49 NA NA JOSEPHINE 2020-08-13 21:00:00 TS 14.2432 -50.7080 PROVISIONAL 1005 996 P_____________ AL112020 14.0999 -50.7076 TS 40 1005 0 70 70 1010 150 70 14 284
2020223N10332 2020 49 NA NA JOSEPHINE 2020-08-14 00:00:00 TS 14.4000 -51.4000 PROVISIONAL 1000 996 O_____________ nhc_working_bt AL112020 14.4000 -51.4000 TS 40 1005 0 70 70 1010 150 70 50 14 288
2020223N10332 2020 49 NA NA JOSEPHINE 2020-08-14 03:00:00 TS 14.6697 -52.0502 PROVISIONAL 1012 1009 P_____________ AL112020 14.6847 -52.0504 TS 37 1005 0 70 70 1009 140 70 14 296
2020223N10332 2020 49 NA NA JOSEPHINE 2020-08-14 06:00:00 TS 15.0000 -52.7000 PROVISIONAL 1020 971 O_____________ nhc_working_bt AL112020 15.0000 -52.7000 TS 35 1006 0 70 70 1009 130 70 45 12 90 75 14 296
2020223N10332 2020 49 NA NA JOSEPHINE 2020-08-14 09:00:00 TS 15.2940 -53.3933 PROVISIONAL 971 933 P_____________ AL112020 15.3324 -53.3932 TS 35 1006 0 70 70 1009 130 70 12 75 52 15 298
2020223N10332 2020 49 NA NA JOSEPHINE 2020-08-14 12:00:00 TS 15.7333 -54.1000 PROVISIONAL 933 925 O_____________ nhc_working_bt AL112020 15.8000 -54.1000 TS 35 1006 0 70 70 1009 130 70 45 12 60 30 18 312
2020223N10332 2020 49 NA NA JOSEPHINE 2020-08-14 15:00:00 TS 16.5190 -54.8066 PROVISIONAL 933 933 P_____________ AL112020 16.5573 -54.8068 TS 35 1006 0 70 70 1009 130 70 12 67 30 21 319
2020223N10332 2020 49 NA NA JOSEPHINE 2020-08-14 18:00:00 TS 17.3000 -55.5000 PROVISIONAL 947 941 O_____________ nhc_working_bt AL112020 17.3000 -55.5000 TS 35 1006 0 70 70 1009 130 70 45 12 75 30 18 313
2020223N10332 2020 49 NA NA JOSEPHINE 2020-08-14 21:00:00 TS 17.7248 -56.1708 PROVISIONAL 939 929 P_____________ AL112020 17.7247 -56.1657 TS 37 1005 0 70 65 1009 130 70 12 75 37 14 299
2020223N10332 2020 49 NA NA JOSEPHINE 2020-08-15 00:00:00 TS 18.0000 -56.8000 PROVISIONAL 930 876 O_____________ nhc_working_bt AL112020 18.0000 -56.8000 TS 40 1005 0 70 60 1009 130 70 50 12 75 30 45 13 298
2020223N10332 2020 49 NA NA JOSEPHINE 2020-08-15 03:00:00 TS 18.3176 -57.3394 PROVISIONAL 876 812 P_____________ AL112020 18.2794 -57.3778 TS 40 1005 0 70 60 1010 115 70 12 75 30 45 12 298
2020223N10332 2020 49 NA NA JOSEPHINE 2020-08-15 06:00:00 TS 18.5667 -57.9333 PROVISIONAL 812 728 O_____________ nhc_working_bt AL112020 18.5000 -58.0000 TS 40 1006 0 70 60 1011 100 70 50 12 75 30 45 14 285
2020223N10332 2020 49 NA NA JOSEPHINE 2020-08-15 09:00:00 TS 18.6662 -58.7525 PROVISIONAL 717 633 P_____________ AL112020 18.6429 -58.8004 TS 40 1006 0 70 60 1011 100 65 16 278
2020223N10332 2020 49 NA NA JOSEPHINE 2020-08-15 12:00:00 TS 18.8000 -59.6000 PROVISIONAL 633 565 O_____________ nhc_working_bt AL112020 18.8000 -59.6000 TS 40 1007 0 70 60 1012 100 60 50 16 290
2020223N10332 2020 49 NA NA JOSEPHINE 2020-08-15 15:00:00 TS 19.2021 -60.3034 PROVISIONAL 565 512 P_____________ AL112020 19.0919 -60.2224 TS 40 1007 0 70 60 1012 100 60 15 302
2020223N10332 2020 49 NA NA JOSEPHINE 2020-08-15 18:00:00 TS 19.6000 -60.9333 PROVISIONAL 512 454 O_____________ nhc_working_bt AL112020 19.4000 -60.8000 TS 40 1008 0 70 60 1013 100 60 50 12 90 30 75 13 295
2020223N10332 2020 49 NA NA JOSEPHINE 2020-08-15 21:00:00 TS 19.7445 -61.5123 PROVISIONAL 454 399 P_____________ AL112020 19.6298 -61.4351 TS 40 1008 0 85 60 1013 100 60 11 280
2020223N10332 2020 49 NA NA JOSEPHINE 2020-08-16 00:00:00 TS 19.8000 -62.1000 PROVISIONAL 399 338 O_____________ nhc_working_bt AL112020 19.8000 -62.1000 TS 40 1008 0 100 60 1013 100 60 12 277
2020223N10332 2020 49 NA NA JOSEPHINE 2020-08-16 03:00:00 TS 19.9002 -62.8125 PROVISIONAL 338 284 P_____________ AL112020 19.9151 -62.8227 TS 37 1008 0 95 1013 100 75 13 279
2020223N10332 2020 49 NA NA JOSEPHINE 2020-08-16 06:00:00 TS 20.0000 -63.5000 PROVISIONAL 284 253 O_____________ nhc_working_bt AL112020 20.0000 -63.5000 TS 35 1009 0 90 1013 100 90 45 12 279
2020223N10332 2020 49 NA NA JOSEPHINE 2020-08-16 09:00:00 TS 20.0846 -64.0377 PROVISIONAL 253 232 P_____________ AL112020 20.0846 -64.0377 TS 32 1009 -1 1012 110 95 10 282
2020223N10332 2020 49 NA NA JOSEPHINE 2020-08-16 12:00:00 TS 20.2000 -64.5000 PROVISIONAL 232 224 O_____________ nhc_working_bt AL112020 20.2000 -64.5000 TD 30 1009 -1 1012 120 100 40 9 289
2020223N10332 2020 49 NA NA JOSEPHINE 2020-08-16 15:00:00 TS 20.3803 -64.9496 PROVISIONAL 235 229 P_____________ AL112020 20.3803 -64.9496 TD 30 1009 -1 1012 120 90 9 295
2020223N10332 2020 49 NA NA JOSEPHINE 2020-08-16 18:00:00 TS 20.6000 -65.4000 PROVISIONAL 246 O_____________ nhc_working_bt AL112020 20.6000 -65.4000 TD 30 1010 -1 1012 120 80 40 10 297

IBTrACS Databaseについて

本データベースは、米国NOAAが公開する1842年以降の世界の熱帯低気圧のベストトラックデータアーカイブInternational Best Track Archive for Climate Stewardship (IBTrACS)を、ウェブで閲覧しやすい形式に変換したものです。

最終更新日:2021-10-08